La Crosse, Wisconsin
Current Conditions -  °F | °C
As of 10:53 PM on Tuesday 25 Nov 2014 (Local Time) from KLSE Reporting Station
Overcast Overcast  
Wind Chill: 11°   Ceiling: 8000
Heat Index: 19°   Visibility: 10mi
Dew Point: 14°   Wind: 6mph
Humidity: 81%   Direction: 110°ESE
Pressure: 30.11"   Gusts: NA
Location:  43.81°N, 91.25°W
Report Text: KLSE 260453Z AUTO 11005KT 10SM OVC080 M07/M10 A3011 RMK AO2 SLP216 T10721100
Loading
Personal Weather Stations






























Interactive Weather Map New forecast layout! Learn more

10-Day Weather Forecast

Advertisements
Track Severe Weather on mobile